Time;durP1;ratioP1;P1;durP2;ratioP2;P2;SDS_P1;SDS_P2;PMS_P1;PMS_P2;Temp;Humidity;BMP_temperature;BMP_pressure;BME280_temperature;BME280_humidity;BME280_pressure;Samples;Min_cycle;Max_cycle;Signal;HPM_P1;HPM_P2
2022/07/31 00:00:10;;;;;;;20.95;18.17;;;537.70;2406.40;;;;;;5011068;28;20546;-84
2022/07/31 00:06:49;;;;;;;20.80;17.45;;;537.60;2406.40;;;;;;5051236;28;20028;-83
2022/07/31 00:11:04;;;;;;;21.15;17.77;;;537.80;2406.40;;;;;;5093636;28;20523;-83
2022/07/31 00:13:15;;;;;;;20.73;16.67;;;537.70;2406.40;;;;;;5027315;28;20590;-84
2022/07/31 00:37:29;;;;;;;18.73;16.77;;;537.90;2406.40;;;;;;4896046;29;20528;-83
2022/07/31 00:40:01;;;;;;;19.35;16.77;;;537.80;2406.40;;;;;;4917821;28;20073;-84
2022/07/31 00:42:49;;;;;;;18.95;16.70;;;537.70;2406.40;;;;;;5090448;28;20032;-84
2022/07/31 01:41:07;;;;;;;17.30;15.60;;;537.80;2406.40;;;;;;5112072;28;20531;-83
2022/07/31 03:48:50;;;;;;;;;;;;;;;;;;;;;
2022/07/31 05:56:17;;;;;;;17.77;15.73;;;538.30;2406.40;;;;;;4955367;29;20038;-83
2022/07/31 05:59:31;;;;;;;20.08;16.88;;;538.50;2406.40;;;;;;4949638;29;20159;-82
2022/07/31 06:02:00;;;;;;;21.13;16.83;;;538.50;2406.40;;;;;;4954544;28;20516;-82
2022/07/31 06:04:52;;;;;;;19.15;17.25;;;538.50;2406.40;;;;;;5038072;27;20046;-83
2022/07/31 06:07:17;;;;;;;20.83;18.08;;;538.50;2406.40;;;;;;5118223;27;20503;-84
2022/07/31 06:09:46;;;;;;;19.70;15.82;;;538.40;2406.40;;;;;;5118053;27;20035;-82
2022/07/31 06:46:52;;;;;;;;;;;;;;;;;;;;;
2022/07/31 06:50:08;;;;;;;23.35;17.48;;;563.40;2432.00;;;;;;5002920;28;20033;-85
2022/07/31 06:56:47;;;;;;;19.85;17.35;;;563.40;2432.00;;;;;;5050368;28;20382;-82
2022/07/31 07:07:30;;;;;;;20.45;18.38;;;563.60;2432.00;;;;;;4972284;28;20034;-83
2022/07/31 07:14:28;;;;;;;18.80;16.33;;;563.70;2432.00;;;;;;4863417;29;20075;-82
2022/07/31 07:17:00;;;;;;;17.67;15.77;;;563.90;2432.00;;;;;;4894235;29;20056;-84
2022/07/31 07:19:29;;;;;;;21.42;16.30;;;564.10;2432.00;;;;;;4878400;29;20450;-82
2022/07/31 07:21:55;;;;;;;17.98;15.85;;;564.10;2432.00;;;;;;4918326;28;20054;-83
2022/07/31 07:24:21;;;;;;;24.40;16.98;;;564.10;2432.00;;;;;;5015154;28;20032;-83
2022/07/31 07:26:47;;;;;;;16.45;14.68;;;564.10;2432.00;;;;;;5055149;28;20017;-84
2022/07/31 07:29:13;;;;;;;15.57;13.98;;;564.10;2432.00;;;;;;5054857;28;20028;-84
2022/07/31 07:31:39;;;;;;;17.23;15.10;;;589.00;2432.00;;;;;;5054690;28;20524;-82
2022/07/31 07:34:07;;;;;;;17.00;14.82;;;589.00;2432.00;;;;;;5054803;28;20025;-82
2022/07/31 07:36:33;;;;;;;14.98;13.65;;;589.20;2432.00;;;;;;5054860;28;20028;-82
2022/07/31 07:38:59;;;;;;;14.52;13.00;;;589.30;2432.00;;;;;;5054698;28;20079;-83
2022/07/31 07:41:25;;;;;;;15.02;13.63;;;589.30;2432.00;;;;;;5097746;28;20062;-84
2022/07/31 07:43:52;;;;;;;14.80;13.35;;;589.10;2432.00;;;;;;5116925;28;20058;-85
2022/07/31 07:46:17;;;;;;;16.58;14.25;;;589.30;2432.00;;;;;;5118801;27;20118;-85
2022/07/31 07:48:43;;;;;;;15.50;14.00;;;589.50;2432.00;;;;;;5120526;27;20567;-84
2022/07/31 07:51:09;;;;;;;13.85;12.40;;;589.40;2432.00;;;;;;5121032;27;20039;-83
2022/07/31 07:53:36;;;;;;;15.45;13.95;;;589.70;2432.00;;;;;;5121588;27;20054;-83
2022/07/31 07:56:02;;;;;;;14.13;12.82;;;589.60;2432.00;;;;;;5121934;27;20496;-83
2022/07/31 07:58:28;;;;;;;14.10;12.70;;;614.40;2432.00;;;;;;5122449;27;20069;-81
2022/07/31 08:00:54;;;;;;;13.32;12.13;;;614.60;2432.00;;;;;;5121092;27;20027;-81
2022/07/31 08:03:20;;;;;;;12.63;11.35;;;614.70;2432.00;;;;;;5119353;27;20031;-82
2022/07/31 08:05:46;;;;;;;13.38;11.98;;;614.90;2432.00;;;;;;5120597;27;20027;-80
2022/07/31 08:08:12;;;;;;;13.48;10.32;;;615.10;2432.00;;;;;;5120406;27;20129;-81
2022/07/31 08:10:39;;;;;;;11.45;10.30;;;615.00;2432.00;;;;;;5120048;27;20094;-81
2022/07/31 08:13:05;;;;;;;11.32;10.30;;;615.00;2432.00;;;;;;5120425;27;20497;-83
2022/07/31 08:15:34;;;;;;;10.57;9.57;;;615.10;2432.00;;;;;;5120459;27;20015;-81
2022/07/31 08:18:00;;;;;;;11.32;10.23;;;615.20;2432.00;;;;;;5139956;27;20015;-83
2022/07/31 08:20:28;;;;;;;12.23;10.93;;;615.20;2432.00;;;;;;5143776;27;20024;-83
2022/07/31 08:23:02;;;;;;;9.43;8.52;;;640.00;2432.00;;;;;;5124580;27;20092;-82
2022/07/31 08:25:28;;;;;;;12.77;9.70;;;615.30;2432.00;;;;;;5124156;27;20027;-84
2022/07/31 08:27:53;;;;;;;10.57;9.57;;;640.30;2432.00;;;;;;5121707;27;20030;-83
2022/07/31 08:30:19;;;;;;;9.35;8.55;;;640.60;2432.00;;;;;;5119899;27;20027;-84
2022/07/31 08:32:45;;;;;;;9.68;8.68;;;;;;;;;;5119740;27;20155;-83
2022/07/31 08:35:12;;;;;;;9.85;8.85;;;;;;;;;;5119988;27;20159;-82
2022/07/31 08:37:40;;;;;;;11.90;9.05;;;;;;;;;;5119994;27;20430;-82
2022/07/31 08:40:06;;;;;;;9.80;8.65;;;;;;;;;;5119848;27;20051;-82
2022/07/31 08:42:32;;;;;;;11.77;9.18;;;;;;;;;;5120026;27;20019;-83
2022/07/31 08:44:59;;;;;;;9.85;8.65;;;;;;;;;;5120193;27;20514;-82
2022/07/31 08:47:26;;;;;;;10.55;8.65;;;;;;;;;;5119365;27;20059;-83
2022/07/31 08:49:52;;;;;;;9.63;8.63;;;;;;;;;;5119837;27;20030;-83
2022/07/31 08:52:19;;;;;;;9.07;8.27;;;;;;;;;;5118704;27;20038;-81
2022/07/31 08:54:46;;;;;;;10.32;9.32;;;;;;;;;;5120247;27;20027;-81
2022/07/31 08:57:15;;;;;;;10.52;9.60;;;;;;;;;;5119910;28;20020;-81
2022/07/31 08:59:41;;;;;;;9.00;8.15;;;;;;;;;;5119577;27;20058;-83
2022/07/31 09:02:11;;;;;;;10.43;9.32;;;;;;;;;;5119319;27;20019;-82
2022/07/31 09:04:37;;;;;;;10.05;9.05;;;;;;;;;;5137484;27;20090;-83
2022/07/31 09:07:03;;;;;;;10.00;9.00;;;;;;;;;;5119535;27;20023;-82
2022/07/31 09:09:30;;;;;;;9.02;8.20;;;;;;;;;;5118911;27;20026;-81
2022/07/31 09:11:56;;;;;;;9.40;8.43;;;;;;;;;;5118671;27;20144;-81
2022/07/31 09:14:30;;;;;;;9.25;8.07;;;;;;;;;;5118781;27;20019;-81
2022/07/31 09:16:59;;;;;;;10.48;9.35;;;;;;;;;;5118922;27;20109;-82
2022/07/31 09:19:35;;;;;;;9.48;8.57;;;;;;;;;;5118737;27;20160;-82
2022/07/31 09:22:01;;;;;;;12.07;8.77;;;;;;;;;;5119140;27;20051;-83
2022/07/31 09:24:28;;;;;;;10.20;8.95;;;;;;;;;;5137282;27;20096;-82
2022/07/31 09:27:08;;;;;;;9.70;8.73;;;;;;;;;;5118725;27;20023;-82
2022/07/31 09:29:34;;;;;;;9.82;8.20;;;;;;;;;;5118035;27;20038;-82
2022/07/31 09:32:13;;;;;;;9.20;8.40;;;691.20;2432.00;;;;;;5118474;27;20468;-82
2022/07/31 09:34:41;;;;;;;11.38;8.70;;;666.30;2432.00;;;;;;5115217;28;20035;-83
2022/07/31 09:37:13;;;;;;;9.68;8.70;;;691.30;2432.00;;;;;;5098483;28;20054;-82
2022/07/31 09:39:39;;;;;;;10.10;7.50;;;;;;;;;;5118621;27;20464;-82
2022/07/31 09:42:06;;;;;;;8.77;7.88;;;;;;;;;;5118637;27;20476;-81
2022/07/31 09:44:39;;;;;;;8.88;7.93;;;;;;;;;;5118600;27;20023;-83
2022/07/31 09:47:06;;;;;;;10.15;9.15;;;;;;;;;;5118216;27;20547;-82
2022/07/31 09:49:35;;;;;;;11.70;7.68;;;;;;;;;;5118566;27;20023;-84
2022/07/31 09:52:01;;;;;;;10.23;7.70;;;716.80;2432.00;;;;;;5118521;27;20027;-83
2022/07/31 09:54:35;;;;;;;9.30;7.63;;;;;;;;;;5136431;27;20023;-82
2022/07/31 09:57:14;;;;;;;8.40;7.45;;;717.20;2432.00;;;;;;5118077;27;20027;-83
2022/07/31 09:59:40;;;;;;;8.00;7.20;;;717.70;2432.00;;;;;;5118279;27;20035;-84
2022/07/31 10:02:08;;;;;;;8.52;7.63;;;717.20;2432.00;;;;;;5117947;27;20388;-83
2022/07/31 10:04:40;;;;;;;7.97;7.15;;;692.10;2432.00;;;;;;5118049;27;20028;-83
2022/07/31 10:07:06;;;;;;;7.70;6.90;;;717.30;2432.00;;;;;;5118165;27;20040;-84
2022/07/31 10:09:33;;;;;;;7.32;6.63;;;717.10;2432.00;;;;;;5116804;27;20028;-85
2022/07/31 10:12:00;;;;;;;7.82;7.13;;;717.40;2432.00;;;;;;5118007;27;20057;-84
2022/07/31 10:14:31;;;;;;;8.18;7.32;;;717.40;2432.00;;;;;;5118047;27;20027;-83
2022/07/31 10:16:59;;;;;;;7.97;6.77;;;742.40;2432.00;;;;;;5117715;27;20498;-83
2022/07/31 10:19:30;;;;;;;10.57;6.78;;;742.50;2380.80;;;;;;5118017;27;20027;-83
2022/07/31 10:22:00;;;;;;;8.73;6.78;;;742.50;2432.00;;;;;;5117807;27;20073;-83
2022/07/31 10:24:29;;;;;;;8.80;7.07;;;742.40;2432.00;;;;;;5117907;27;20023;-83
2022/07/31 10:26:59;;;;;;;10.77;7.03;;;742.50;2406.40;;;;;;5117511;27;20078;-82
2022/07/31 10:29:26;;;;;;;8.80;6.47;;;742.90;2355.20;;;;;;5117276;27;20482;-80
2022/07/31 10:31:52;;;;;;;7.78;6.28;;;742.80;2278.40;;;;;;5117316;27;20031;-80
2022/07/31 10:34:19;;;;;;;7.90;6.30;;;742.40;2278.40;;;;;;5117376;27;20072;-83
2022/07/31 10:36:47;;;;;;;8.18;6.07;;;717.70;2252.80;;;;;;5117158;27;20019;-81
2022/07/31 10:39:17;;;;;;;7.78;7.07;;;717.30;2278.40;;;;;;5117417;27;20023;-80
2022/07/31 10:42:05;;;;;;;8.05;7.20;;;742.40;2406.40;;;;;;5117394;27;20151;-80
2022/07/31 10:44:54;;;;;;;8.35;5.93;;;742.80;2380.80;;;;;;5116908;27;20023;-79
2022/07/31 10:47:21;;;;;;;8.68;7.07;;;743.30;2304.00;;;;;;5116913;27;20055;-80
2022/07/31 10:49:50;;;;;;;11.52;6.70;;;768.40;2176.00;;;;;;5112657;27;20125;-80
2022/07/31 10:52:32;;;;;;;8.38;6.18;;;768.20;2176.00;;;;;;5116708;27;20035;-82
2022/07/31 10:55:00;;;;;;;7.72;6.80;;;743.20;2150.40;;;;;;5108854;27;20034;-82
2022/07/31 10:57:26;;;;;;;8.05;6.97;;;743.10;2176.00;;;;;;5116778;27;20478;-80
2022/07/31 10:59:52;;;;;;;12.93;7.60;;;742.90;2227.20;;;;;;5116561;27;20117;-81
2022/07/31 11:02:34;;;;;;;8.85;7.80;;;742.80;2278.40;;;;;;5133320;27;20027;-84
2022/07/31 11:05:14;;;;;;;7.28;6.57;;;742.60;2304.00;;;;;;5112831;28;20050;-80
2022/07/31 11:07:45;;;;;;;8.32;7.13;;;742.40;2227.20;;;;;;5106325;27;20163;-82
2022/07/31 11:10:19;;;;;;;8.18;6.97;;;717.40;2227.20;;;;;;5116533;27;20503;-79
2022/07/31 11:12:57;;;;;;;9.82;7.47;;;717.40;2278.40;;;;;;5115873;27;20054;-81
2022/07/31 11:15:24;;;;;;;9.30;8.05;;;717.40;2304.00;;;;;;5096535;28;20023;-82
2022/07/31 11:17:51;;;;;;;10.23;7.53;;;717.40;2355.20;;;;;;5115829;27;20035;-81
2022/07/31 11:20:35;;;;;;;8.30;7.45;;;717.40;2355.20;;;;;;5116728;27;20502;-80
2022/07/31 11:23:06;;;;;;;9.30;7.43;;;717.40;2329.60;;;;;;5134072;27;20151;-80
2022/07/31 11:25:35;;;;;;;9.00;7.05;;;717.50;2329.60;;;;;;5116416;28;20028;-79
2022/07/31 11:28:10;;;;;;;9.40;7.38;;;717.70;2355.20;;;;;;5110009;28;20028;-81
2022/07/31 11:30:52;;;;;;;9.27;7.28;;;717.70;2329.60;;;;;;5096047;28;20031;-79
2022/07/31 11:33:37;;;;;;;;;;;717.50;2329.60;;;;;;5124796;27;20035;-80
2022/07/31 11:36:11;;;;;;;8.00;6.90;;;717.40;2329.60;;;;;;5115868;28;20237;-80
2022/07/31 11:38:38;;;;;;;8.30;7.30;;;717.30;2355.20;;;;;;5110556;28;20030;-79
2022/07/31 11:41:04;;;;;;;10.30;8.60;;;717.20;2355.20;;;;;;5134804;28;20114;-79
2022/07/31 11:43:33;;;;;;;8.93;8.02;;;717.20;2355.20;;;;;;5113693;28;20047;-79
2022/07/31 11:46:00;;;;;;;8.88;7.28;;;717.50;2329.60;;;;;;5100710;28;20479;-80
2022/07/31 11:48:26;;;;;;;8.55;7.78;;;742.50;2355.20;;;;;;5097040;28;20130;-81
2022/07/31 11:50:52;;;;;;;8.38;7.45;;;743.10;2329.60;;;;;;5098491;28;20040;-79
2022/07/31 11:53:18;;;;;;;8.00;7.20;;;743.10;2176.00;;;;;;5096391;28;20035;-82
2022/07/31 11:55:48;;;;;;;8.80;6.93;;;768.10;2227.20;;;;;;5123492;28;20088;-82
2022/07/31 11:58:16;;;;;;;7.53;6.38;;;768.30;2227.20;;;;;;5104387;28;20031;-81
2022/07/31 12:00:58;;;;;;;8.63;7.63;;;768.50;2124.80;;;;;;5101721;28;20488;-82
2022/07/31 12:03:35;;;;;;;8.07;7.28;;;794.00;2227.20;;;;;;5109823;28;20088;-80
2022/07/31 12:06:02;;;;;;;6.72;6.13;;;794.00;2150.40;;;;;;5099658;28;20046;-80
2022/07/31 12:08:29;;;;;;;9.82;6.90;;;794.20;2150.40;;;;;;5122987;28;20039;-81
2022/07/31 12:10:58;;;;;;;7.72;6.97;;;819.20;2124.80;;;;;;5108857;28;20056;-80
2022/07/31 12:13:25;;;;;;;7.32;6.63;;;819.20;2073.60;;;;;;5104309;28;20028;-80
2022/07/31 12:16:08;;;;;;;7.35;6.43;;;819.30;2073.60;;;;;;5099943;28;20035;-80
2022/07/31 12:18:50;;;;;;;6.40;5.80;;;819.50;2022.40;;;;;;5104556;28;20027;-80
2022/07/31 12:21:17;;;;;;;7.45;6.32;;;819.60;2048.00;;;;;;5105426;28;20039;-80
2022/07/31 12:23:48;;;;;;;6.35;5.75;;;819.80;2048.00;;;;;;5104907;28;20050;-81
2022/07/31 12:26:48;;;;;;;6.87;6.27;;;819.60;2048.00;;;;;;5107273;28;20507;-81
2022/07/31 12:29:14;;;;;;;9.68;5.85;;;794.40;1996.80;;;;;;5107875;28;20306;-85
2022/07/31 12:31:45;;;;;;;6.30;5.70;;;819.20;2022.40;;;;;;5098007;28;20059;-83
2022/07/31 12:34:12;;;;;;;7.78;6.55;;;819.50;2022.40;;;;;;5111652;27;20058;-81
2022/07/31 12:36:38;;;;;;;6.07;5.30;;;819.60;1971.20;;;;;;5107058;27;20205;-80
2022/07/31 12:39:04;;;;;;;10.57;5.75;;;819.90;1971.20;;;;;;5108899;27;20447;-80
2022/07/31 12:41:41;;;;;;;7.53;6.25;;;819.80;1894.40;;;;;;5103771;27;20499;-80
2022/07/31 12:44:12;;;;;;;5.30;4.35;;;819.60;1868.80;;;;;;5108666;27;20080;-82
2022/07/31 12:46:37;;;;;;;4.63;3.92;;;819.60;1817.60;;;;;;5126070;27;20385;-79
2022/07/31 12:49:05;;;;;;;6.15;4.07;;;819.50;1817.60;;;;;;5134162;27;20125;-80
2022/07/31 12:51:33;;;;;;;5.60;4.50;;;819.50;1792.00;;;;;;5119060;27;20484;-80
2022/07/31 12:54:03;;;;;;;5.13;4.28;;;819.30;1817.60;;;;;;5121837;27;20023;-81
2022/07/31 12:56:33;;;;;;;5.78;5.00;;;794.50;1843.20;;;;;;5138732;27;20052;-79
2022/07/31 12:59:01;;;;;;;4.93;4.35;;;819.20;1945.60;;;;;;5120300;27;20023;-80
2022/07/31 13:01:27;;;;;;;5.75;4.50;;;794.50;1843.20;;;;;;5118895;27;20027;-81
2022/07/31 13:03:55;;;;;;;4.95;4.10;;;794.10;1843.20;;;;;;5119021;27;20019;-81
2022/07/31 13:06:21;;;;;;;5.22;4.20;;;794.50;1843.20;;;;;;5118783;27;20114;-78
2022/07/31 13:08:47;;;;;;;5.10;3.78;;;794.20;1868.80;;;;;;5118675;27;20023;-81
2022/07/31 13:11:13;;;;;;;4.57;3.60;;;794.20;1843.20;;;;;;5118856;27;20054;-80
2022/07/31 13:13:39;;;;;;;4.82;3.88;;;819.40;1792.00;;;;;;5119252;27;20046;-81
2022/07/31 13:16:05;;;;;;;4.63;3.53;;;819.60;1817.60;;;;;;5119740;27;20087;-83
2022/07/31 13:18:32;;;;;;;6.07;3.35;;;819.90;1766.40;;;;;;5118912;27;20027;-84
2022/07/31 13:20:59;;;;;;;4.43;3.63;;;819.90;1740.80;;;;;;5118383;27;20379;-83
2022/07/31 13:23:25;;;;;;;4.47;3.13;;;819.90;1740.80;;;;;;5118710;27;20019;-83
2022/07/31 13:25:51;;;;;;;6.00;3.80;;;844.80;1740.80;;;;;;5119160;27;20547;-83
2022/07/31 13:28:18;;;;;;;4.45;3.70;;;845.00;1792.00;;;;;;5118872;27;20030;-83
2022/07/31 13:30:43;;;;;;;5.28;3.63;;;845.30;1740.80;;;;;;5118769;27;20462;-83
2022/07/31 13:33:09;;;;;;;5.70;3.90;;;845.30;1740.80;;;;;;5118755;27;20088;-84
2022/07/31 13:35:36;;;;;;;6.35;3.30;;;845.20;1689.60;;;;;;5118954;27;20025;-84
2022/07/31 13:38:01;;;;;;;3.58;2.97;;;844.90;1664.00;;;;;;5118975;27;20024;-85
2022/07/31 13:43:11;;;;;;;4.00;2.90;;;845.40;1689.60;;;;;;5137632;27;20038;-82
2022/07/31 13:45:37;;;;;;;4.03;3.63;;;845.30;1664.00;;;;;;5119093;27;20023;-84
2022/07/31 13:48:05;;;;;;;5.38;3.30;;;845.70;1689.60;;;;;;5118311;27;20096;-82
2022/07/31 13:50:31;;;;;;;5.97;4.13;;;;;;;;;;5118416;27;20034;-84
2022/07/31 13:52:57;;;;;;;4.95;3.92;;;;;;;;;;5118784;27;20025;-84
2022/07/31 13:55:24;;;;;;;7.88;3.63;;;870.90;1740.80;;;;;;5118593;27;20023;-85
2022/07/31 13:57:50;;;;;;;4.95;4.10;;;870.80;1715.20;;;;;;5118168;27;20053;-82
2022/07/31 14:00:17;;;;;;;7.15;4.43;;;870.70;1715.20;;;;;;5118306;27;20024;-84
2022/07/31 14:02:45;;;;;;;4.78;3.83;;;871.30;1740.80;;;;;;5118148;27;20034;-85
2022/07/31 14:05:12;;;;;;;5.90;4.63;;;896.10;1715.20;;;;;;5118465;27;20035;-84
2022/07/31 14:07:38;;;;;;;4.28;3.53;;;;;;;;;;5118423;27;20027;-82
2022/07/31 14:10:05;;;;;;;4.68;3.90;;;870.70;1689.60;;;;;;5118053;27;20031;-83
2022/07/31 14:12:31;;;;;;;4.60;3.55;;;870.80;1715.20;;;;;;5118004;27;20019;-85
2022/07/31 14:14:57;;;;;;;4.55;3.88;;;871.00;1689.60;;;;;;5118134;27;20023;-82
2022/07/31 14:17:23;;;;;;;5.60;3.60;;;870.70;1715.20;;;;;;5117850;27;20353;-83
2022/07/31 14:19:49;;;;;;;4.10;3.50;;;870.90;1740.80;;;;;;5117980;27;20027;-83
2022/07/31 14:22:15;;;;;;;3.97;3.10;;;870.50;1689.60;;;;;;5117852;27;20023;-83
2022/07/31 14:24:41;;;;;;;3.80;3.20;;;870.80;1689.60;;;;;;5117257;27;20027;-83
2022/07/31 14:27:07;;;;;;;4.10;3.47;;;870.50;1664.00;;;;;;5117788;27;20051;-82
2022/07/31 14:29:33;;;;;;;4.30;3.05;;;845.40;1740.80;;;;;;5117629;27;20451;-84
2022/07/31 14:31:59;;;;;;;8.55;3.55;;;820.10;1740.80;;;;;;5117261;27;20023;-82
2022/07/31 14:34:25;;;;;;;5.13;3.63;;;;;;;;;;5117474;27;20020;-82
2022/07/31 14:36:51;;;;;;;5.70;4.00;;;;;;;;;;5117572;27;20126;-83
2022/07/31 14:39:17;;;;;;;4.13;3.50;;;870.70;1740.80;;;;;;5117207;27;20491;-82
2022/07/31 14:41:44;;;;;;;4.93;3.65;;;870.50;1715.20;;;;;;5117481;27;20030;-82
2022/07/31 14:44:10;;;;;;;4.38;3.35;;;870.70;1689.60;;;;;;5117038;27;20023;-83
2022/07/31 14:46:40;;;;;;;4.85;4.00;;;;;;;;;;5117291;27;20042;-82
2022/07/31 14:49:07;;;;;;;4.33;3.70;;;845.70;1715.20;;;;;;5117217;27;20043;-85
2022/07/31 14:51:49;;;;;;;3.88;3.30;;;;;;;;;;5116638;27;20035;-84
2022/07/31 14:54:21;;;;;;;6.40;3.70;;;;;;;;;;5117144;27;20061;-83
2022/07/31 14:56:50;;;;;;;6.75;4.18;;;;;;;;;;5114477;27;20054;-84
2022/07/31 14:59:26;;;;;;;6.95;4.70;;;820.00;1689.60;;;;;;5116797;27;20023;-84
2022/07/31 15:01:52;;;;;;;7.50;4.80;;;819.50;1715.20;;;;;;5117105;27;20019;-84
2022/07/31 15:04:19;;;;;;;5.20;4.05;;;794.40;1766.40;;;;;;5116938;27;20015;-83
2022/07/31 15:06:51;;;;;;;11.77;4.80;;;794.00;1792.00;;;;;;5116925;27;20023;-83
2022/07/31 15:09:18;;;;;;;7.63;5.15;;;794.20;1766.40;;;;;;5116371;27;20031;-83
2022/07/31 15:11:48;;;;;;;9.02;5.05;;;768.80;1715.20;;;;;;5116751;27;20023;-83
2022/07/31 15:14:15;;;;;;;4.70;3.60;;;794.50;1740.80;;;;;;5116229;27;20019;-83
2022/07/31 15:16:41;;;;;;;5.32;4.05;;;794.50;1740.80;;;;;;5116658;27;20402;-81
2022/07/31 15:19:07;;;;;;;5.53;4.10;;;819.50;1740.80;;;;;;5116490;27;20019;-84
2022/07/31 15:21:33;;;;;;;5.07;3.50;;;819.70;1715.20;;;;;;5116906;27;20070;-82
2022/07/31 15:23:58;;;;;;;5.50;4.32;;;819.60;1740.80;;;;;;5116777;27;20061;-83
2022/07/31 15:26:25;;;;;;;5.95;4.28;;;819.70;1715.20;;;;;;5116159;28;20110;-84
2022/07/31 15:28:51;;;;;;;6.43;3.88;;;794.00;1792.00;;;;;;5116596;28;20023;-82
2022/07/31 15:31:16;;;;;;;6.45;4.28;;;768.70;1817.60;;;;;;5116416;27;20122;-82
2022/07/31 15:33:42;;;;;;;6.82;4.57;;;768.30;1868.80;;;;;;5116074;28;20024;-79
2022/07/31 15:36:08;;;;;;;5.47;3.67;;;768.30;1868.80;;;;;;5116421;28;20507;-82
2022/07/31 15:38:35;;;;;;;5.22;4.03;;;768.10;1894.40;;;;;;5116243;28;20049;-81
2022/07/31 15:41:01;;;;;;;6.05;4.45;;;743.30;1894.40;;;;;;5116145;28;20468;-82
2022/07/31 15:43:27;;;;;;;5.70;4.50;;;743.00;1894.40;;;;;;5134617;28;20478;-79
2022/07/31 15:45:53;;;;;;;6.60;5.07;;;743.20;1920.00;;;;;;5116274;28;20055;-80
2022/07/31 15:48:19;;;;;;;5.38;4.20;;;768.40;1868.80;;;;;;5115706;28;20050;-81
2022/07/31 15:50:45;;;;;;;5.82;3.83;;;768.10;1894.40;;;;;;5116044;28;20053;-80
2022/07/31 15:53:11;;;;;;;7.82;4.10;;;743.20;1894.40;;;;;;5116261;28;20027;-80
2022/07/31 15:55:36;;;;;;;5.63;3.63;;;742.90;1894.40;;;;;;5116001;28;20117;-81
2022/07/31 15:58:03;;;;;;;5.90;3.88;;;742.70;1920.00;;;;;;5116378;28;20023;-80
2022/07/31 16:00:29;;;;;;;6.55;4.30;;;742.60;1920.00;;;;;;5134691;28;20030;-81
2022/07/31 16:02:54;;;;;;;5.95;4.00;;;742.60;1894.40;;;;;;5095893;28;20035;-81
2022/07/31 16:05:21;;;;;;;7.40;3.65;;;742.60;1920.00;;;;;;5095880;28;20035;-83
2022/07/31 16:07:47;;;;;;;5.78;4.20;;;742.80;1894.40;;;;;;5098342;28;20034;-82
2022/07/31 16:10:14;;;;;;;4.88;3.58;;;742.60;1920.00;;;;;;5099475;28;20031;-83
2022/07/31 16:12:41;;;;;;;7.60;4.88;;;742.60;1920.00;;;;;;5118347;28;20496;-81
2022/07/31 16:15:08;;;;;;;6.35;3.78;;;742.50;1945.60;;;;;;5099498;28;20068;-81
2022/07/31 16:17:37;;;;;;;5.22;4.15;;;717.70;1894.40;;;;;;5099794;28;20049;-80
2022/07/31 16:20:10;;;;;;;7.05;3.95;;;742.40;1945.60;;;;;;5099716;28;20038;-83
2022/07/31 16:22:37;;;;;;;5.07;3.83;;;742.40;1996.80;;;;;;5099365;28;20468;-80
2022/07/31 16:25:05;;;;;;;6.28;4.15;;;717.70;1920.00;;;;;;5099507;28;20031;-80
2022/07/31 16:27:31;;;;;;;5.15;4.25;;;717.70;1971.20;;;;;;5099857;28;20461;-82
2022/07/31 16:29:57;;;;;;;7.90;4.55;;;717.60;1971.20;;;;;;5099054;28;20032;-82
2022/07/31 16:32:23;;;;;;;9.73;4.63;;;717.40;1945.60;;;;;;5099425;28;20031;-80
2022/07/31 16:34:49;;;;;;;5.95;4.18;;;717.50;1996.80;;;;;;5099532;28;20028;-81
2022/07/31 16:37:15;;;;;;;6.60;4.75;;;717.40;1971.20;;;;;;5098906;28;20028;-84
2022/07/31 16:39:41;;;;;;;7.72;4.93;;;717.40;1996.80;;;;;;5099464;28;20047;-82
2022/07/31 16:42:06;;;;;;;7.95;4.32;;;717.40;2022.40;;;;;;5099270;28;20467;-82
2022/07/31 16:44:32;;;;;;;9.57;4.60;;;717.20;2073.60;;;;;;5099117;28;20190;-83
2022/07/31 16:46:59;;;;;;;7.65;5.13;;;717.10;2099.20;;;;;;5098996;28;20063;-81
2022/07/31 16:49:25;;;;;;;8.20;6.03;;;716.90;2022.40;;;;;;5098775;28;20134;-81
2022/07/31 16:51:50;;;;;;;9.05;4.35;;;717.10;2099.20;;;;;;5098741;28;20477;-82
2022/07/31 16:54:17;;;;;;;5.20;4.07;;;717.10;1996.80;;;;;;5098999;28;20027;-81
2022/07/31 16:56:43;;;;;;;8.18;3.63;;;717.10;2022.40;;;;;;5099109;28;20089;-83
2022/07/31 16:59:09;;;;;;;4.20;3.28;;;717.10;1996.80;;;;;;5098638;28;20036;-80
2022/07/31 17:01:35;;;;;;;6.05;3.63;;;717.10;2022.40;;;;;;5099083;28;20041;-79
2022/07/31 17:04:02;;;;;;;10.27;4.93;;;717.00;1971.20;;;;;;5099096;28;20066;-80
2022/07/31 17:06:31;;;;;;;8.25;4.53;;;717.00;1996.80;;;;;;5098761;28;20024;-80
2022/07/31 17:08:57;;;;;;;4.10;2.85;;;716.90;1996.80;;;;;;5098863;28;20028;-80
2022/07/31 17:11:22;;;;;;;6.78;3.75;;;716.90;1996.80;;;;;;5098495;28;20090;-81
2022/07/31 17:13:48;;;;;;;6.20;3.08;;;692.10;1945.60;;;;;;5099107;28;20034;-80
2022/07/31 17:16:14;;;;;;;5.05;3.10;;;692.10;1945.60;;;;;;5099367;28;20085;-82
2022/07/31 17:18:40;;;;;;;4.63;3.08;;;692.00;1971.20;;;;;;5122247;28;20083;-80
2022/07/31 17:21:06;;;;;;;5.15;3.28;;;691.90;1945.60;;;;;;5114909;28;20035;-83
2022/07/31 17:23:31;;;;;;;5.32;3.05;;;692.00;1971.20;;;;;;5104097;28;20038;-81
2022/07/31 17:25:57;;;;;;;6.70;3.90;;;691.90;1945.60;;;;;;5104003;28;20039;-80
2022/07/31 17:28:23;;;;;;;7.93;3.78;;;691.70;1971.20;;;;;;5099541;28;20461;-80
2022/07/31 17:30:49;;;;;;;6.45;4.25;;;691.70;2048.00;;;;;;5098199;28;20034;-82
2022/07/31 17:33:15;;;;;;;12.90;3.85;;;691.60;2124.80;;;;;;5098033;28;20023;-83
2022/07/31 17:35:41;;;;;;;5.03;3.60;;;691.30;2124.80;;;;;;5116509;28;20422;-82
2022/07/31 17:38:06;;;;;;;6.25;3.80;;;666.50;2150.40;;;;;;5116193;28;20026;-81
2022/07/31 17:40:32;;;;;;;5.53;4.10;;;666.30;2176.00;;;;;;5103609;28;20036;-83
2022/07/31 17:42:59;;;;;;;8.25;4.13;;;666.30;2150.40;;;;;;5103139;28;20053;-82
2022/07/31 17:45:26;;;;;;;6.55;4.03;;;666.10;2176.00;;;;;;5106620;28;20035;-82
2022/07/31 17:47:52;;;;;;;6.70;4.93;;;666.00;2201.60;;;;;;5121657;27;20138;-83
2022/07/31 17:50:19;;;;;;;7.22;4.07;;;665.60;2176.00;;;;;;5105199;28;20059;-83
2022/07/31 17:52:45;;;;;;;5.53;4.10;;;665.70;2201.60;;;;;;5105858;27;20034;-82
2022/07/31 17:55:11;;;;;;;5.45;3.55;;;665.70;2227.20;;;;;;5114445;27;20035;-83
2022/07/31 17:57:37;;;;;;;5.97;3.97;;;665.70;2227.20;;;;;;5110535;27;20020;-83
2022/07/31 18:00:05;;;;;;;8.52;4.93;;;665.70;2201.60;;;;;;5106878;27;20511;-80
2022/07/31 18:02:31;;;;;;;7.53;4.57;;;665.60;2201.60;;;;;;5107308;27;20118;-83
2022/07/31 18:04:57;;;;;;;9.30;4.15;;;665.60;2227.20;;;;;;5110896;27;20102;-81
2022/07/31 18:07:24;;;;;;;8.48;4.10;;;665.60;2227.20;;;;;;5110420;27;20122;-82
2022/07/31 18:09:50;;;;;;;11.70;4.45;;;665.60;2227.20;;;;;;5102205;27;20426;-83
2022/07/31 18:12:16;;;;;;;6.90;3.95;;;665.60;2227.20;;;;;;5125233;27;20551;-80
2022/07/31 18:14:42;;;;;;;7.95;4.50;;;665.60;2227.20;;;;;;5103189;28;20114;-81
2022/07/31 18:17:08;;;;;;;6.05;4.55;;;665.60;2252.80;;;;;;5107593;27;20114;-82
2022/07/31 18:19:34;;;;;;;7.07;4.90;;;640.90;2227.20;;;;;;5104669;27;20430;-81
2022/07/31 18:22:00;;;;;;;11.43;4.90;;;640.90;2227.20;;;;;;5106965;27;20027;-80
2022/07/31 18:24:26;;;;;;;6.13;4.03;;;640.90;2252.80;;;;;;5112825;27;20034;-84
2022/07/31 18:26:55;;;;;;;6.60;4.25;;;640.80;2252.80;;;;;;5110086;27;20032;-81
2022/07/31 18:29:20;;;;;;;5.78;3.92;;;640.80;2252.80;;;;;;5111741;27;20050;-81
2022/07/31 18:31:47;;;;;;;7.05;3.47;;;640.70;2252.80;;;;;;5101075;28;20468;-82
2022/07/31 18:34:13;;;;;;;5.88;3.85;;;640.70;2252.80;;;;;;5100897;27;20504;-81
2022/07/31 18:36:39;;;;;;;8.40;4.43;;;640.70;2252.80;;;;;;5102468;28;20032;-80
2022/07/31 18:39:05;;;;;;;6.97;3.72;;;640.90;2227.20;;;;;;5101952;28;20030;-83
2022/07/31 18:41:37;;;;;;;8.45;3.78;;;640.50;2252.80;;;;;;5102718;27;20034;-83
2022/07/31 18:44:03;;;;;;;4.18;3.28;;;640.70;2252.80;;;;;;5103068;28;20027;-83
2022/07/31 18:46:31;;;;;;;6.90;3.55;;;640.70;2252.80;;;;;;5107666;27;20027;-83
2022/07/31 18:48:58;;;;;;;5.32;3.63;;;640.60;2252.80;;;;;;5105434;27;20040;-81
2022/07/31 18:51:24;;;;;;;7.93;4.43;;;640.60;2278.40;;;;;;5105873;27;20027;-82
2022/07/31 18:53:52;;;;;;;7.50;3.50;;;640.60;2278.40;;;;;;5106154;27;20031;-83
2022/07/31 18:56:18;;;;;;;5.70;3.47;;;640.60;2278.40;;;;;;5103588;28;20024;-83
2022/07/31 18:58:44;;;;;;;6.53;3.60;;;640.60;2278.40;;;;;;5105537;27;20031;-83
2022/07/31 19:01:10;;;;;;;5.78;4.57;;;640.60;2278.40;;;;;;5097368;27;20016;-83
2022/07/31 19:03:36;;;;;;;7.82;4.35;;;640.50;2304.00;;;;;;5111734;28;20028;-83
2022/07/31 19:06:03;;;;;;;5.30;3.70;;;640.40;2329.60;;;;;;5100674;27;20073;-84